createdAt,value
2018-10-12T00:00:17.159Z,57.9
2018-10-12T00:01:07.236Z,57.9
2018-10-12T00:01:57.301Z,57.9
2018-10-12T00:02:47.126Z,57.9
2018-10-12T00:03:37.166Z,57.9
2018-10-12T00:04:27.242Z,57.9
2018-10-12T00:05:17.329Z,57.9
2018-10-12T00:06:08.097Z,57.9
2018-10-12T00:06:58.038Z,57.9
2018-10-12T00:25:14.723Z,57.7
2018-10-12T00:26:04.284Z,57.7
2018-10-12T00:26:53.620Z,57.7
2018-10-12T00:27:44.648Z,57.7
2018-10-12T00:28:34.443Z,57.7
2018-10-12T00:29:24.548Z,57.7
2018-10-12T00:30:15.106Z,57.7
2018-10-12T00:31:04.968Z,57.7
2018-10-12T00:31:54.767Z,57.6
2018-10-12T00:32:44.465Z,57.6
2018-10-12T00:33:35.395Z,57.6
2018-10-12T00:34:24.953Z,57.6
2018-10-12T00:35:15.639Z,57.6
2018-10-12T00:36:05.025Z,57.6
2018-10-12T00:36:54.775Z,57.6
2018-10-12T00:37:45.385Z,57.6
2018-10-12T00:38:34.915Z,57.6
2018-10-12T00:39:24.715Z,57.6
2018-10-12T00:40:15.285Z,57.6
2018-10-12T00:41:05.361Z,57.6
2018-10-12T00:41:55.822Z,57.6
2018-10-12T00:42:45.771Z,57.6
2018-10-12T00:43:35.257Z,57.6
2018-10-12T00:44:25.369Z,57.6
2018-10-12T00:45:15.717Z,57.6
2018-10-12T00:46:06.302Z,57.6
2018-10-12T00:46:55.529Z,57.6
2018-10-12T00:47:45.989Z,57.5
2018-10-12T00:48:36.061Z,57.5
2018-10-12T00:49:26.257Z,57.5
2018-10-12T00:50:16.342Z,57.5
2018-10-12T00:51:06.375Z,57.5
2018-10-12T00:51:56.450Z,57.5
2018-10-12T00:52:46.269Z,57.5
2018-10-12T00:53:36.308Z,57.5
2018-10-12T00:54:26.656Z,57.4
2018-10-12T00:55:16.489Z,57.4
2018-10-12T00:56:06.751Z,57.4
2018-10-12T00:56:56.551Z,57.5
2018-10-12T00:57:46.926Z,57.4
2018-10-12T00:58:36.371Z,57.4
2018-10-12T00:59:27.008Z,57.4
2018-10-12T01:00:17.086Z,57.4
2018-10-12T01:01:06.576Z,57.4
2018-10-12T01:01:56.931Z,57.4
2018-10-12T01:02:47.013Z,57.4
2018-10-12T01:03:36.745Z,57.4
2018-10-12T01:04:27.658Z,57.4
2018-10-12T01:05:16.920Z,57.4
2018-10-12T01:06:08.013Z,57.4
2018-10-12T01:06:57.026Z,57.4
2018-10-12T01:07:47.063Z,57.4
2018-10-12T01:08:37.703Z,57.4
2018-10-12T01:09:27.455Z,57.4
2018-10-12T01:10:17.827Z,57.4
2018-10-12T01:11:07.898Z,57.4
2018-10-12T01:11:57.670Z,57.3
2018-10-12T01:12:47.748Z,57.3
2018-10-12T01:13:37.233Z,57.3
2018-10-12T01:14:28.212Z,57.3
2018-10-12T01:15:17.667Z,57.3
2018-10-12T01:16:08.000Z,57.3
2018-10-12T01:16:58.325Z,57.3
2018-10-12T01:17:48.105Z,57.3
2018-10-12T01:18:38.428Z,57.3
2018-10-12T01:19:28.465Z,57.3
2018-10-12T01:20:18.253Z,57.3
2018-10-12T01:21:08.052Z,57.3
2018-10-12T01:21:58.927Z,57.3
2018-10-12T01:22:48.497Z,57.3
2018-10-12T01:23:38.263Z,57.3
2018-10-12T01:24:28.882Z,57.3
2018-10-12T01:25:18.644Z,57.3
2018-10-12T01:26:08.972Z,57.3
2018-10-12T01:26:58.787Z,57.2
2018-10-12T01:27:48.871Z,57.2
2018-10-12T01:28:38.324Z,57.2
2018-10-12T01:29:28.701Z,57.2
2018-10-12T01:30:19.056Z,57.2
2018-10-12T01:31:08.844Z,57.2
2018-10-12T01:31:59.172Z,57.2
2018-10-12T01:32:49.233Z,57.1
2018-10-12T01:33:38.708Z,57.1
2018-10-12T01:34:29.361Z,57.1
2018-10-12T01:35:19.343Z,57.2
2018-10-12T01:36:08.925Z,57.1
2018-10-12T01:36:59.761Z,57.1
2018-10-12T01:37:49.860Z,57.1
2018-10-12T01:38:39.641Z,57.1
2018-10-12T01:39:30.021Z,57.1
2018-10-12T01:40:19.201Z,57.1
2018-10-12T01:41:09.818Z,57.1
2018-10-12T01:42:00.180Z,57.1
2018-10-12T01:42:50.189Z,57.1
2018-10-12T01:43:40.306Z,57.1
2018-10-12T01:44:30.067Z,57.1
2018-10-12T01:45:20.436Z,57.1
2018-10-12T01:46:09.906Z,57.1
2018-10-12T01:47:00.238Z,57.1
2018-10-12T01:47:50.857Z,57.1
2018-10-12T01:48:40.138Z,57.1
2018-10-12T01:49:30.449Z,57
2018-10-12T01:50:20.815Z,57
2018-10-12T01:51:10.047Z,57
2018-10-12T01:52:00.640Z,57
2018-10-12T01:52:51.027Z,57
2018-10-12T01:53:41.073Z,57
2018-10-12T01:54:29.963Z,57
2018-10-12T01:55:21.141Z,57
2018-10-12T01:56:11.222Z,57
2018-10-12T01:57:01.300Z,56.9
2018-10-12T01:57:51.397Z,57
2018-10-12T01:58:41.115Z,56.9
2018-10-12T01:59:31.239Z,56.9
2018-10-12T02:00:21.542Z,56.9
2018-10-12T02:01:11.610Z,56.9
2018-10-12T02:02:00.845Z,56.9
2018-10-12T02:02:51.431Z,56.9
2018-10-12T02:03:41.808Z,56.9
2018-10-12T02:04:31.297Z,56.9
2018-10-12T02:05:21.607Z,56.9
2018-10-12T02:06:11.955Z,56.9
2018-10-12T02:07:02.075Z,56.9
2018-10-12T02:07:50.932Z,56.9
2018-10-12T02:08:42.117Z,56.9
2018-10-12T02:09:31.947Z,56.9
2018-10-12T02:10:21.740Z,56.9
2018-10-12T02:11:12.040Z,56.9
2018-10-12T02:12:02.405Z,56.9
2018-10-12T02:12:52.456Z,56.8
2018-10-12T02:13:41.662Z,56.9
2018-10-12T02:14:32.603Z,56.8
2018-10-12T02:15:21.798Z,56.8
2018-10-12T02:16:12.709Z,56.8
2018-10-12T02:17:02.528Z,56.8
2018-10-12T02:17:52.794Z,56.8
2018-10-12T02:18:42.637Z,56.8
2018-10-12T02:19:33.021Z,56.8
2018-10-12T02:20:21.854Z,56.8
2018-10-12T02:21:12.564Z,56.8
2018-10-12T02:22:02.589Z,56.8
2018-10-12T02:22:53.228Z,56.8
2018-10-12T02:23:43.234Z,56.8
2018-10-12T02:24:33.046Z,56.8
2018-10-12T02:25:23.114Z,56.8
2018-10-12T02:26:13.171Z,56.8
2018-10-12T02:27:03.546Z,56.8
2018-10-12T02:27:53.273Z,56.8
2018-10-12T02:28:43.280Z,56.7
2018-10-12T02:29:33.676Z,56.7
2018-10-12T02:30:23.835Z,56.7
2018-10-12T02:31:13.279Z,56.7
2018-10-12T02:32:03.649Z,56.7
2018-10-12T02:32:53.689Z,56.7
2018-10-12T02:33:43.755Z,56.7
2018-10-12T02:34:34.083Z,56.7
2018-10-12T02:35:23.850Z,56.7
2018-10-12T02:36:13.905Z,56.6
2018-10-12T02:37:04.281Z,56.7
2018-10-12T02:37:54.316Z,56.7
2018-10-12T02:38:44.176Z,56.6
2018-10-12T02:39:34.455Z,56.6
2018-10-12T02:40:23.960Z,56.6
2018-10-12T02:41:14.303Z,56.6
2018-10-12T02:42:04.593Z,56.6
2018-10-12T02:42:54.428Z,56.6
2018-10-12T02:43:44.440Z,56.6
2018-10-12T02:44:34.803Z,56.6
2018-10-12T02:45:24.307Z,56.6
2018-10-12T02:46:14.636Z,56.6
2018-10-12T02:47:05.060Z,56.6
2018-10-12T02:47:54.763Z,56.6
2018-10-12T02:48:44.573Z,56.6
2018-10-12T02:49:34.936Z,56.6
2018-10-12T02:50:25.267Z,56.6
2018-10-12T02:51:15.050Z,56.6
2018-10-12T02:52:04.275Z,56.5
2018-10-12T02:52:54.858Z,56.6
2018-10-12T02:53:45.512Z,56.5
2018-10-12T02:54:35.558Z,56.5
2018-10-12T02:55:25.659Z,56.5
2018-10-12T02:56:15.404Z,56.5
2018-10-12T02:57:05.507Z,56.5
2018-10-12T02:57:55.542Z,56.5
2018-10-12T02:58:45.602Z,56.5
2018-10-12T02:59:35.973Z,56.5
2018-10-12T03:00:26.047Z,56.5
2018-10-12T03:01:15.244Z,56.4
2018-10-12T03:02:06.127Z,56.4
2018-10-12T03:02:55.374Z,56.5
2018-10-12T03:03:46.042Z,56.4
2018-10-12T03:04:36.407Z,56.4
2018-10-12T03:05:26.129Z,56.4
2018-10-12T03:06:16.614Z,56.4
2018-10-12T03:07:06.283Z,56.4
2018-10-12T03:07:55.995Z,56.4
2018-10-12T03:08:46.347Z,56.4
2018-10-12T03:09:36.685Z,56.4
2018-10-12T03:10:26.468Z,56.4
2018-10-12T03:11:16.785Z,56.4
2018-10-12T03:12:06.868Z,56.4
2018-10-12T03:12:56.405Z,56.4
2018-10-12T03:13:46.690Z,56.4
2018-10-12T03:14:37.045Z,56.4
2018-10-12T03:15:26.817Z,56.4
2018-10-12T03:16:16.649Z,56.4
2018-10-12T03:17:07.265Z,56.4
2018-10-12T03:17:57.028Z,56.3
2018-10-12T03:18:47.395Z,56.3
2018-10-12T03:19:37.362Z,56.3
2018-10-12T03:20:27.243Z,56.3
2018-10-12T03:21:17.551Z,56.3
2018-10-12T03:22:07.055Z,56.3
2018-10-12T03:22:57.610Z,56.3
2018-10-12T03:23:47.485Z,56.3
2018-10-12T03:24:37.225Z,56.3
2018-10-12T03:25:28.455Z,56.3
2018-10-12T03:26:16.860Z,56.3
2018-10-12T03:27:06.714Z,56.3
2018-10-12T03:27:57.775Z,56.3
2018-10-12T03:28:47.332Z,56.3
2018-10-12T03:29:38.161Z,56.3
2018-10-12T03:30:28.223Z,56.2
2018-10-12T03:31:18.404Z,56.3
2018-10-12T03:32:08.214Z,56.2
2018-10-12T03:32:57.560Z,56.2
2018-10-12T03:33:48.187Z,56.2
2018-10-12T03:34:37.959Z,56.2
2018-10-12T03:35:28.034Z,56.2
2018-10-12T03:36:18.362Z,56.2
2018-10-12T03:37:08.003Z,56.2
2018-10-12T03:37:58.484Z,56.1
2018-10-12T03:38:48.520Z,56.1
2018-10-12T03:39:38.364Z,56.1
2018-10-12T03:40:28.702Z,56.1
2018-10-12T03:41:18.471Z,56.1
2018-10-12T03:42:09.105Z,56.1
2018-10-12T03:42:59.157Z,56.1
2018-10-12T03:43:48.629Z,56.1
2018-10-12T03:44:39.006Z,56.1
2018-10-12T03:45:29.293Z,56.1
2018-10-12T03:46:18.553Z,56.1
2018-10-12T03:47:09.189Z,56.1
2018-10-12T03:47:58.668Z,56.1
2018-10-12T03:48:49.604Z,56.1
2018-10-12T03:49:39.346Z,56.1
2018-10-12T03:50:28.865Z,56.1
2018-10-12T03:51:19.784Z,56.1
2018-10-12T03:52:09.286Z,56.1
2018-10-12T03:52:59.313Z,56.1
2018-10-12T03:53:49.147Z,56.1
2018-10-12T03:54:40.016Z,56
2018-10-12T03:55:29.813Z,56
2018-10-12T03:56:19.305Z,56
2018-10-12T03:57:09.888Z,56
2018-10-12T03:57:59.662Z,56
2018-10-12T03:58:49.461Z,56
2018-10-12T03:59:39.560Z,56
2018-10-12T04:00:29.581Z,56
2018-10-12T04:01:19.936Z,56
2018-10-12T04:02:10.026Z,55.9
2018-10-12T04:03:01.115Z,55.9
2018-10-12T04:03:50.425Z,55.9
2018-10-12T04:04:40.179Z,56
2018-10-12T04:05:30.585Z,55.9
2018-10-12T04:06:20.113Z,55.9
2018-10-12T04:07:10.448Z,55.9
2018-10-12T04:08:00.498Z,55.9
2018-10-12T04:08:50.043Z,55.9
2018-10-12T04:09:40.645Z,55.9
2018-10-12T04:10:30.662Z,55.9
2018-10-12T04:11:20.772Z,55.9
2018-10-12T04:12:10.720Z,55.9
2018-10-12T04:13:01.399Z,55.9
2018-10-12T04:13:51.175Z,55.9
2018-10-12T04:14:40.955Z,55.9
2018-10-12T04:15:31.265Z,55.9
2018-10-12T04:16:21.346Z,55.9
2018-10-12T04:17:11.668Z,55.9
2018-10-12T04:18:01.462Z,55.9
2018-10-12T04:18:51.537Z,55.8
2018-10-12T04:19:41.605Z,55.9
2018-10-12T04:20:31.889Z,55.8
2018-10-12T04:21:21.680Z,55.8
2018-10-12T04:22:12.040Z,55.8
2018-10-12T04:23:02.400Z,55.8
2018-10-12T04:23:51.307Z,55.8
2018-10-12T04:24:41.980Z,55.8
2018-10-12T04:25:32.084Z,55.8
2018-10-12T04:26:22.087Z,55.8
2018-10-12T04:27:10.146Z,55.8
2018-10-12T04:28:01.892Z,55.8
2018-10-12T04:28:52.561Z,55.8
2018-10-12T04:29:42.590Z,55.8
2018-10-12T04:30:32.732Z,55.8
2018-10-12T04:31:22.464Z,55.8
2018-10-12T04:32:12.788Z,55.8
2018-10-12T04:33:02.371Z,55.8
2018-10-12T04:33:52.911Z,55.8
2018-10-12T04:34:42.407Z,55.8
2018-10-12T04:35:32.767Z,55.7
2018-10-12T04:36:22.861Z,55.7
2018-10-12T04:54:32.295Z,55.5
2018-10-12T04:55:22.131Z,55.5
2018-10-12T04:56:12.419Z,55.5
2018-10-12T04:57:02.219Z,55.5
2018-10-12T04:57:52.538Z,55.5
2018-10-12T04:58:42.331Z,55.5
2018-10-12T04:59:32.690Z,55.5
2018-10-12T05:00:22.706Z,55.5
2018-10-12T05:01:14.023Z,55.5
2018-10-12T05:02:02.544Z,55.4
2018-10-12T05:02:52.873Z,55.5
2018-10-12T05:03:42.706Z,55.4
2018-10-12T05:04:32.762Z,55.4
2018-10-12T05:05:22.458Z,55.4
2018-10-12T05:06:12.517Z,55.4
2018-10-12T05:07:03.190Z,55.4
2018-10-12T05:07:54.198Z,55.4
2018-10-12T05:08:42.188Z,55.4
2018-10-12T05:09:33.100Z,55.4
2018-10-12T05:10:23.240Z,55.4
2018-10-12T05:11:13.237Z,55.4
2018-10-12T05:12:03.582Z,55.4
2018-10-12T05:12:53.333Z,55.4
2018-10-12T05:13:43.116Z,55.4
2018-10-12T05:14:33.177Z,55.4
2018-10-12T05:15:23.272Z,55.4
2018-10-12T05:16:14.152Z,55.4
2018-10-12T05:17:03.392Z,55.4
2018-10-12T05:17:53.699Z,55.4
2018-10-12T05:18:43.812Z,55.4
2018-10-12T05:19:34.115Z,55.4
2018-10-12T05:20:23.909Z,55.4
2018-10-12T05:21:14.811Z,55.3
2018-10-12T05:22:05.562Z,55.3
2018-10-12T05:22:53.824Z,55.3
2018-10-12T05:23:43.902Z,55.3
2018-10-12T05:24:33.651Z,55.3
2018-10-12T05:25:24.232Z,55.3
2018-10-12T05:26:14.014Z,55.3
2018-10-12T05:27:04.401Z,55.3
2018-10-12T05:27:54.519Z,55.3
2018-10-12T05:28:44.772Z,55.3
2018-10-12T05:29:34.831Z,55.3
2018-10-12T05:30:25.474Z,55.3
2018-10-12T05:31:14.694Z,55.3
2018-10-12T05:32:03.950Z,55.3
2018-10-12T05:32:54.840Z,55.3
2018-10-12T05:33:45.143Z,55.3
2018-10-12T05:34:34.938Z,55.3
2018-10-12T05:35:24.743Z,55.2
2018-10-12T05:36:15.429Z,55.2
2018-10-12T05:37:05.127Z,55.2
2018-10-12T05:37:55.178Z,55.2
2018-10-12T05:38:45.273Z,55.2
2018-10-12T05:39:34.746Z,55.2
2018-10-12T05:40:25.414Z,55.2
2018-10-12T05:41:15.773Z,55.2
2018-10-12T05:42:05.188Z,55.2
2018-10-12T05:42:57.331Z,55.2
2018-10-12T05:43:46.298Z,55.1
2018-10-12T05:44:35.411Z,55.1
2018-10-12T05:45:25.762Z,55.1
2018-10-12T05:46:14.957Z,55.1
2018-10-12T05:47:06.222Z,55.1
2018-10-12T05:47:56.206Z,55.1
2018-10-12T05:48:46.233Z,55.1
2018-10-12T05:49:34.646Z,55.1
2018-10-12T05:50:25.822Z,55.1
2018-10-12T05:51:16.168Z,55.1
2018-10-12T05:52:06.545Z,55.1
2018-10-12T05:52:56.006Z,55.1
2018-10-12T05:53:46.410Z,55.1
2018-10-12T05:54:36.753Z,55.1
2018-10-12T05:55:26.473Z,55.1
2018-10-12T05:56:16.825Z,55.1
2018-10-12T05:57:06.823Z,55.1
2018-10-12T05:57:56.963Z,55.1
2018-10-12T05:58:46.190Z,55.1
2018-10-12T05:59:37.114Z,55
2018-10-12T06:00:26.567Z,55
2018-10-12T06:01:18.007Z,55
2018-10-12T06:02:07.812Z,55
2018-10-12T06:02:57.078Z,55
2018-10-12T06:03:47.119Z,55
2018-10-12T06:04:37.510Z,55
2018-10-12T06:05:26.987Z,55
2018-10-12T06:06:16.447Z,55
2018-10-12T06:07:07.837Z,55
2018-10-12T06:07:57.485Z,55
2018-10-12T06:08:47.798Z,54.9
2018-10-12T06:09:38.219Z,54.9
2018-10-12T06:10:27.390Z,54.9
2018-10-12T06:11:17.135Z,54.9
2018-10-12T06:12:08.036Z,54.9
2018-10-12T06:12:57.214Z,54.9
2018-10-12T06:13:48.137Z,54.9
2018-10-12T06:14:38.230Z,54.9
2018-10-12T06:15:28.492Z,54.9
2018-10-12T06:16:17.747Z,54.9
2018-10-12T06:17:08.084Z,54.9
2018-10-12T06:17:58.684Z,54.9
2018-10-12T06:18:48.246Z,54.9
2018-10-12T06:19:38.284Z,54.9
2018-10-12T06:20:28.097Z,54.9
2018-10-12T06:21:18.427Z,54.9
2018-10-12T06:22:08.186Z,54.8
2018-10-12T06:22:58.799Z,54.9
2018-10-12T06:23:48.075Z,54.8
2018-10-12T06:24:38.662Z,54.8
2018-10-12T06:25:29.071Z,54.8
2018-10-12T06:26:19.316Z,54.8
2018-10-12T06:27:09.174Z,54.8
2018-10-12T06:27:59.182Z,54.8
2018-10-12T06:28:48.954Z,54.8
2018-10-12T06:29:39.397Z,54.8
2018-10-12T06:30:28.809Z,54.8
2018-10-12T06:31:18.845Z,54.8
2018-10-12T06:32:09.454Z,54.8
2018-10-12T06:33:00.141Z,54.8
2018-10-12T06:33:48.744Z,54.8
2018-10-12T06:34:39.107Z,54.8
2018-10-12T06:35:29.480Z,54.8
2018-10-12T06:36:19.798Z,54.8
2018-10-12T06:37:09.845Z,54.8
2018-10-12T06:37:59.620Z,54.8
2018-10-12T06:38:49.698Z,54.7
2018-10-12T06:39:39.723Z,54.8
2018-10-12T06:40:28.961Z,54.7
2018-10-12T06:41:21.424Z,54.7
2018-10-12T06:42:10.255Z,54.7
2018-10-12T06:43:00.288Z,54.7
2018-10-12T06:43:50.091Z,54.7
2018-10-12T06:44:40.441Z,54.7
2018-10-12T06:45:29.994Z,54.7
2018-10-12T06:46:20.807Z,54.7
2018-10-12T06:47:10.613Z,54.7
2018-10-12T06:48:00.383Z,54.6
2018-10-12T06:48:50.445Z,54.6
2018-10-12T06:49:40.271Z,54.6
2018-10-12T06:50:30.011Z,54.6
2018-10-12T06:51:20.668Z,54.6
2018-10-12T06:52:10.690Z,54.6
2018-10-12T06:53:01.043Z,54.6
2018-10-12T06:53:51.378Z,54.6
2018-10-12T06:54:41.425Z,54.6
2018-10-12T06:55:31.255Z,54.6
2018-10-12T06:56:21.352Z,54.6
2018-10-12T06:57:10.797Z,54.6
2018-10-12T06:58:01.403Z,54.6
2018-10-12T06:58:51.185Z,54.6
2018-10-12T06:59:41.586Z,54.6
2018-10-12T07:00:30.740Z,54.6
2018-10-12T07:01:21.372Z,54.6
2018-10-12T07:02:11.669Z,54.6
2018-10-12T07:03:01.163Z,54.5
2018-10-12T07:03:51.287Z,54.6
2018-10-12T07:04:41.867Z,54.6
2018-10-12T07:05:32.033Z,54.5
2018-10-12T07:06:22.056Z,54.5
2018-10-12T07:07:11.839Z,54.5
2018-10-12T07:08:02.663Z,54.5
2018-10-12T07:08:52.443Z,54.5
2018-10-12T07:09:41.134Z,54.5
2018-10-12T07:10:32.328Z,54.5
2018-10-12T07:11:22.404Z,54.5
2018-10-12T07:12:11.891Z,54.5
2018-10-12T07:13:02.437Z,54.4
2018-10-12T07:13:52.008Z,54.4
2018-10-12T07:14:42.056Z,54.4
2018-10-12T07:15:32.649Z,54.4
2018-10-12T07:16:22.195Z,54.4
2018-10-12T07:17:12.779Z,54.4
2018-10-12T07:18:03.617Z,54.4
2018-10-12T07:18:52.352Z,54.4
2018-10-12T07:19:44.695Z,54.4
2018-10-12T07:20:32.514Z,54.4
2018-10-12T07:21:22.595Z,54.4
2018-10-12T07:22:12.312Z,54.4
2018-10-12T07:23:03.755Z,54.4
2018-10-12T07:23:52.460Z,54.4
2018-10-12T07:24:43.368Z,54.4
2018-10-12T07:25:33.110Z,54.4
2018-10-12T07:26:22.639Z,54.4
2018-10-12T07:27:12.507Z,54.4
2018-10-12T07:28:02.496Z,54.4
2018-10-12T07:28:53.675Z,54.4
2018-10-12T07:29:43.707Z,54.4
2018-10-12T07:30:33.267Z,54.3
2018-10-12T07:31:23.859Z,54.3
2018-10-12T07:32:13.351Z,54.3
2018-10-12T07:33:03.998Z,54.3
2018-10-12T07:33:54.065Z,54.3
2018-10-12T07:34:43.836Z,54.3
2018-10-12T07:35:33.995Z,54.3
2018-10-12T07:36:23.708Z,54.3
2018-10-12T07:37:13.750Z,54.3
2018-10-12T07:38:03.878Z,54.3
2018-10-12T07:38:54.144Z,54.3
2018-10-12T07:39:43.404Z,54.3
2018-10-12T07:40:34.752Z,54.3
2018-10-12T07:41:23.762Z,54.3
2018-10-12T07:42:14.255Z,54.3
2018-10-12T07:43:04.435Z,54.3
2018-10-12T07:43:53.632Z,54.3
2018-10-12T07:44:44.544Z,54.3
2018-10-12T07:45:35.697Z,54.3
2018-10-12T07:46:24.939Z,54.2
2018-10-12T07:47:15.439Z,54.3
2018-10-12T07:48:04.768Z,54.3
2018-10-12T07:48:54.294Z,54.2
2018-10-12T07:49:44.405Z,54.2
2018-10-12T07:50:34.913Z,54.2
2018-10-12T07:51:24.527Z,54.2
2018-10-12T07:52:14.565Z,54.2
2018-10-12T07:53:05.137Z,54.2
2018-10-12T07:53:55.251Z,54.1
2018-10-12T07:54:44.489Z,54.1
2018-10-12T07:55:35.415Z,54.1
2018-10-12T07:56:25.705Z,54.1
2018-10-12T07:57:15.501Z,54.1
2018-10-12T07:58:05.278Z,54.1
2018-10-12T07:58:56.418Z,54.1
2018-10-12T07:59:45.954Z,54.1
2018-10-12T08:00:37.225Z,54.1
2018-10-12T08:01:26.163Z,54.1
2018-10-12T08:02:15.854Z,54.1
2018-10-12T08:03:05.916Z,54.1
2018-10-12T08:03:55.160Z,54.1
2018-10-12T08:04:46.360Z,54.1
2018-10-12T08:05:36.274Z,54.1
2018-10-12T08:06:27.201Z,54.1
2018-10-12T08:07:16.493Z,54.1
2018-10-12T08:08:06.001Z,54.1
2018-10-12T08:08:56.578Z,54.1
2018-10-12T08:09:47.715Z,54.1
2018-10-12T08:10:37.203Z,54.1
2018-10-12T08:11:26.872Z,54.1
2018-10-12T08:12:16.333Z,54
2018-10-12T08:13:06.665Z,54
2018-10-12T08:13:57.768Z,54.1
2018-10-12T08:14:46.829Z,54
2018-10-12T08:15:37.375Z,54
2018-10-12T08:16:26.850Z,54
2018-10-12T08:17:17.230Z,54
2018-10-12T08:18:07.015Z,54
2018-10-12T08:18:57.359Z,54
2018-10-12T08:19:46.887Z,53.9
2018-10-12T08:20:37.762Z,54
2018-10-12T08:21:27.555Z,53.9
2018-10-12T08:22:17.609Z,54
2018-10-12T08:23:07.667Z,53.9
2018-10-12T08:23:57.214Z,53.9
2018-10-12T08:24:48.053Z,53.9
2018-10-12T08:25:37.792Z,53.9
2018-10-12T08:26:27.935Z,53.9
2018-10-12T08:27:17.435Z,53.9
2018-10-12T08:28:07.775Z,53.9
2018-10-12T08:28:57.342Z,53.9
2018-10-12T08:29:47.772Z,53.9
2018-10-12T08:30:37.132Z,53.9
2018-10-12T08:31:27.878Z,53.9
2018-10-12T08:32:17.591Z,53.9
2018-10-12T08:33:07.524Z,53.9
2018-10-12T08:33:57.426Z,53.9
2018-10-12T08:34:48.069Z,53.9
2018-10-12T08:35:38.563Z,53.9
2018-10-12T08:36:28.657Z,53.9
2018-10-12T08:37:19.009Z,53.8
2018-10-12T08:38:08.539Z,53.9
2018-10-12T08:38:58.604Z,53.8
2018-10-12T08:39:47.893Z,53.8
2018-10-12T08:40:38.516Z,53.8
2018-10-12T08:41:28.780Z,53.8
2018-10-12T08:42:19.096Z,53.8
2018-10-12T08:43:08.334Z,53.8
2018-10-12T08:43:58.971Z,53.8
2018-10-12T08:44:49.619Z,53.8
2018-10-12T08:45:39.413Z,53.9
2018-10-12T08:46:29.154Z,53.9
2018-10-12T08:47:19.699Z,53.9
2018-10-12T08:48:09.280Z,54.1
2018-10-12T08:48:59.595Z,54.2
2018-10-12T08:49:48.659Z,54.2
2018-10-12T08:50:39.438Z,54.3
2018-10-12T08:51:29.793Z,54.3
2018-10-12T08:52:19.303Z,54.4
2018-10-12T09:08:52.965Z,56
2018-10-12T09:09:43.190Z,56.1
2018-10-12T09:10:32.810Z,56.3
2018-10-12T09:11:22.569Z,56.4
2018-10-12T09:12:12.901Z,56.4
2018-10-12T09:13:02.977Z,56.5
2018-10-12T09:13:52.940Z,56.6
2018-10-12T09:14:43.391Z,56.7
2018-10-12T09:15:32.829Z,56.8
2018-10-12T09:16:23.398Z,56.8
2018-10-12T09:17:12.981Z,56.9
2018-10-12T09:18:03.318Z,57
2018-10-12T09:18:54.462Z,57.1
2018-10-12T09:19:42.906Z,57.1
2018-10-12T09:20:36.393Z,57.3
2018-10-12T09:21:23.261Z,57.4
2018-10-12T09:22:13.026Z,57.4
2018-10-12T09:23:02.921Z,57.5
2018-10-12T09:23:53.189Z,57.6
2018-10-12T09:24:44.109Z,57.6
2018-10-12T09:25:33.108Z,57.7
2018-10-12T09:26:23.253Z,57.8
2018-10-12T09:27:14.018Z,57.9
2018-10-12T09:28:03.550Z,57.9
2018-10-12T09:28:53.344Z,58.1
2018-10-12T09:29:43.398Z,58.2
2018-10-12T09:30:34.599Z,58.3
2018-10-12T09:31:24.069Z,58.3
2018-10-12T09:32:14.145Z,58.4
2018-10-12T09:33:04.239Z,58.4
2018-10-12T09:33:54.001Z,58.4
2018-10-12T09:35:33.922Z,58.6
2018-10-12T09:36:24.414Z,58.8
2018-10-12T09:37:15.055Z,58.8
2018-10-12T09:38:05.055Z,58.9
2018-10-12T09:38:54.658Z,59
2018-10-12T09:39:45.063Z,59.1
2018-10-12T09:40:34.500Z,59.1
2018-10-12T09:41:25.324Z,59.1
2018-10-12T09:42:14.610Z,59.2
2018-10-12T09:43:04.461Z,59.3
2018-10-12T09:43:54.205Z,59.3
2018-10-12T09:44:44.837Z,59.4
2018-10-12T09:45:34.892Z,59.4
2018-10-12T09:46:24.595Z,59.4
2018-10-12T09:47:15.012Z,59.5
2018-10-12T09:48:04.199Z,59.5
2018-10-12T09:48:54.827Z,59.5
2018-10-12T09:49:44.870Z,59.5
2018-10-12T09:50:35.692Z,59.6
2018-10-12T09:51:25.130Z,59.6
2018-10-12T09:52:15.087Z,59.5
2018-10-12T09:53:05.159Z,59.5
2018-10-12T09:53:55.480Z,59.5
2018-10-12T09:54:45.044Z,59.6
2018-10-12T09:55:36.141Z,59.6
2018-10-12T09:56:25.957Z,59.6
2018-10-12T09:57:15.169Z,59.7
2018-10-12T09:58:05.504Z,59.8
2018-10-12T09:58:55.579Z,59.8
2018-10-12T09:59:45.624Z,59.8
2018-10-12T10:00:36.233Z,59.9
2018-10-12T10:01:26.304Z,59.9
2018-10-12T10:02:17.303Z,59.9
2018-10-12T10:03:05.903Z,60
2018-10-12T10:03:55.989Z,60
2018-10-12T10:04:45.513Z,60
2018-10-12T10:05:36.299Z,60.1
2018-10-12T10:06:26.156Z,60.1
2018-10-12T10:07:16.481Z,60.1
2018-10-12T10:08:07.431Z,60.1
2018-10-12T10:08:57.229Z,60.1
2018-10-12T10:09:47.464Z,60.1
2018-10-12T10:10:36.189Z,60.1
2018-10-12T10:11:26.508Z,60.1
2018-10-12T10:12:16.830Z,60.2
2018-10-12T10:13:06.055Z,60.2
2018-10-12T10:13:57.559Z,60.3
2018-10-12T10:14:46.770Z,60.3
2018-10-12T10:15:37.734Z,60.3
2018-10-12T10:16:27.355Z,60.4
2018-10-12T10:17:17.273Z,60.4
2018-10-12T10:18:07.320Z,60.5
2018-10-12T10:18:57.848Z,60.5
2018-10-12T10:19:47.657Z,60.5
2018-10-12T10:20:37.407Z,60.5
2018-10-12T10:21:26.768Z,60.5
2018-10-12T10:22:17.543Z,60.5
2018-10-12T10:23:07.659Z,60.5
2018-10-12T10:23:57.137Z,60.5
2018-10-12T10:24:47.208Z,60.5
2018-10-12T10:25:37.550Z,60.5
2018-10-12T10:26:28.382Z,60.6
2018-10-12T10:27:18.110Z,60.6
2018-10-12T10:28:08.222Z,60.6
2018-10-12T10:28:58.352Z,60.6
2018-10-12T10:29:48.507Z,60.7
2018-10-12T10:30:38.215Z,60.6
2018-10-12T10:31:27.704Z,60.6
2018-10-12T10:32:19.327Z,60.7
2018-10-12T10:33:08.924Z,60.7
2018-10-12T10:33:57.892Z,60.7
2018-10-12T10:34:47.927Z,60.6
2018-10-12T10:35:39.120Z,60.6
2018-10-12T10:36:28.508Z,60.6
2018-10-12T10:37:19.196Z,60.6
2018-10-12T10:38:08.717Z,60.6
2018-10-12T10:38:59.751Z,60.6
2018-10-12T10:39:48.029Z,60.6
2018-10-12T10:40:38.847Z,60.6
2018-10-12T10:41:29.504Z,60.6
2018-10-12T10:42:19.577Z,60.6
2018-10-12T10:43:09.404Z,60.6
2018-10-12T10:43:58.596Z,60.6
2018-10-12T10:44:49.167Z,60.6
2018-10-12T10:45:39.014Z,60.6
2018-10-12T10:46:30.910Z,60.6
2018-10-12T10:47:19.155Z,60.6
2018-10-12T10:48:09.789Z,60.6
2018-10-12T10:48:59.329Z,60.6
2018-10-12T10:49:49.043Z,60.6
2018-10-12T10:50:39.432Z,60.6
2018-10-12T10:51:30.223Z,60.6
2018-10-12T10:52:19.796Z,60.6
2018-10-12T10:53:09.858Z,60.6
2018-10-12T10:53:59.153Z,60.6
2018-10-12T10:54:49.703Z,60.6
2018-10-12T10:55:40.084Z,60.6
2018-10-12T10:56:29.820Z,60.6
2018-10-12T10:57:20.366Z,60.6
2018-10-12T10:58:10.436Z,60.6
2018-10-12T10:59:00.109Z,60.6
2018-10-12T10:59:50.645Z,60.6
2018-10-12T11:00:40.500Z,60.6
2018-10-12T11:01:30.795Z,60.6
2018-10-12T11:02:20.219Z,60.6
2018-10-12T11:03:11.475Z,60.6
2018-10-12T11:04:00.693Z,60.6
2018-10-12T11:04:49.952Z,60.6
2018-10-12T11:05:40.763Z,60.5
2018-10-12T11:06:32.087Z,60.5
2018-10-12T11:07:21.242Z,60.5
2018-10-12T11:08:11.260Z,60.5
2018-10-12T11:09:00.564Z,60.5
2018-10-12T11:09:50.865Z,60.5
2018-10-12T11:10:41.160Z,60.5
2018-10-12T11:11:30.956Z,60.5
2018-10-12T11:12:22.664Z,60.5
2018-10-12T11:13:10.793Z,60.5
2018-10-12T11:14:00.860Z,60.5
2018-10-12T11:14:51.745Z,60.5
2018-10-12T11:15:41.542Z,60.5
2018-10-12T11:16:31.872Z,60.5
2018-10-12T11:17:21.586Z,60.4
2018-10-12T11:18:11.690Z,60.4
2018-10-12T11:19:01.572Z,60.4
2018-10-12T11:19:51.278Z,60.4
2018-10-12T11:20:41.055Z,60.4
2018-10-12T11:21:31.881Z,60.4
2018-10-12T11:22:22.532Z,60.4
2018-10-12T11:23:12.599Z,60.4
2018-10-12T11:24:02.662Z,60.4
2018-10-12T11:24:52.155Z,60.5
2018-10-12T11:25:42.466Z,60.5
2018-10-12T11:26:33.716Z,60.5
2018-10-12T11:27:22.909Z,60.5
2018-10-12T11:28:13.546Z,60.5
2018-10-12T11:29:02.681Z,60.6
2018-10-12T11:29:52.790Z,60.6
2018-10-12T11:30:42.836Z,60.6
2018-10-12T11:31:33.195Z,60.7
2018-10-12T11:32:22.968Z,60.8
2018-10-12T11:33:13.829Z,60.8
2018-10-12T11:34:03.615Z,60.8
2018-10-12T11:34:53.156Z,60.8
2018-10-12T11:35:43.239Z,60.9
2018-10-12T11:36:32.479Z,60.9
2018-10-12T11:37:23.127Z,61
2018-10-12T11:38:14.011Z,61
2018-10-12T11:39:03.463Z,61.1
2018-10-12T11:39:53.290Z,61.1
2018-10-12T11:40:43.858Z,61.2
2018-10-12T11:41:33.932Z,61.3
2018-10-12T11:42:24.016Z,61.3
2018-10-12T11:43:13.808Z,61.3
2018-10-12T11:44:03.873Z,61.4
2018-10-12T11:44:55.340Z,61.4
2018-10-12T11:45:44.285Z,61.5
2018-10-12T11:46:33.565Z,61.5
2018-10-12T11:47:24.658Z,61.6
2018-10-12T11:48:14.468Z,61.7
2018-10-12T11:49:04.000Z,61.7
2018-10-12T11:49:53.777Z,61.8
2018-10-12T11:50:44.345Z,61.8
2018-10-12T11:51:34.398Z,61.8
2018-10-12T11:52:24.735Z,61.9
2018-10-12T11:53:14.257Z,61.9
2018-10-12T11:54:05.402Z,61.9
2018-10-12T11:54:54.946Z,62
2018-10-12T11:55:45.002Z,62
2018-10-12T11:56:35.077Z,62
2018-10-12T11:57:24.619Z,62.1
2018-10-12T11:58:14.882Z,62.1
2018-10-12T11:59:04.910Z,62.1
2018-10-12T11:59:55.275Z,62.1